Time;durP1;ratioP1;P1;durP2;ratioP2;P2;SDS_P1;SDS_P2;PMS_P1;PMS_P2;Temp;Humidity;BMP_temperature;BMP_pressure;BME280_temperature;BME280_humidity;BME280_pressure;Samples;Min_cycle;Max_cycle;Signal;HPM_P1;HPM_P2
2022/04/23 00:00:53;;;;;;;2.37;1.00;;;16.40;99.90;;;;;;6331936;22;20185;-93
2022/04/23 00:03:27;;;;;;;1.83;0.83;;;16.70;99.90;;;;;;6329447;22;20174;-93
2022/04/23 00:05:59;;;;;;;2.00;0.90;;;17.10;99.90;;;;;;6323143;22;20179;-93
2022/04/23 00:08:34;;;;;;;2.07;0.80;;;16.70;99.90;;;;;;6318367;22;20197;-92
2022/04/23 00:11:14;;;;;;;2.43;0.97;;;16.80;99.90;;;;;;6320386;22;20182;-92
2022/04/23 00:13:46;;;;;;;2.63;0.73;;;16.40;99.90;;;;;;6317391;22;20201;-92
2022/04/23 00:16:21;;;;;;;3.17;0.80;;;16.30;99.90;;;;;;6320116;22;20166;-91
2022/04/23 00:18:54;;;;;;;2.63;0.60;;;16.30;99.90;;;;;;6316450;22;20220;-92
2022/04/23 00:21:26;;;;;;;1.57;0.83;;;16.30;99.90;;;;;;6315192;22;20174;-93
2022/04/23 00:24:00;;;;;;;1.77;0.97;;;16.10;99.90;;;;;;6321149;22;20175;-91
2022/04/23 00:26:30;;;;;;;1.50;1.03;;;16.20;99.90;;;;;;6316653;22;20178;-92
2022/04/23 00:29:02;;;;;;;2.60;0.73;;;15.90;99.90;;;;;;6314191;22;20178;-92
2022/04/23 00:31:33;;;;;;;2.50;1.07;;;15.90;99.90;;;;;;6317448;22;20170;-92
2022/04/23 00:34:07;;;;;;;2.50;0.90;;;16.10;99.90;;;;;;6317398;22;20194;-92
2022/04/23 00:36:42;;;;;;;0.70;0.60;;;16.30;99.90;;;;;;6318264;22;20492;-93
2022/04/23 00:39:23;;;;;;;2.00;0.80;;;16.30;99.90;;;;;;6295782;22;20185;-92
2022/04/23 00:42:00;;;;;;;1.97;0.77;;;16.40;99.90;;;;;;6324482;22;20174;-93
2022/04/23 00:44:38;;;;;;;1.93;0.80;;;16.40;99.90;;;;;;6322551;22;20174;-93
2022/04/23 00:47:12;;;;;;;2.07;0.70;;;16.50;99.90;;;;;;6319117;22;20570;-93
2022/04/23 00:49:47;;;;;;;0.97;0.60;;;16.60;99.90;;;;;;6324485;22;20174;-95
2022/04/23 00:52:19;;;;;;;0.80;0.50;;;16.80;99.90;;;;;;6319473;22;20178;-92
2022/04/23 00:54:50;;;;;;;2.00;0.63;;;16.90;99.90;;;;;;6317918;22;20240;-94
2022/04/23 00:57:24;;;;;;;1.63;1.00;;;17.10;99.90;;;;;;6325064;22;20246;-94
2022/04/23 00:59:56;;;;;;;1.67;0.70;;;17.00;99.90;;;;;;6335460;22;20189;-94
2022/04/23 01:02:28;;;;;;;1.33;0.80;;;16.80;99.90;;;;;;6309685;22;20236;-92
2022/04/23 01:05:08;;;;;;;1.00;0.70;;;17.10;99.90;;;;;;6335777;22;20177;-93
2022/04/23 01:10:23;;;;;;;1.60;0.90;;;16.30;99.90;;;;;;6303988;22;20213;-92
2022/04/23 01:12:54;;;;;;;2.53;1.20;;;15.90;99.90;;;;;;6292507;22;20190;-92
2022/04/23 01:15:25;;;;;;;0.93;0.70;;;15.60;99.90;;;;;;6290154;22;20198;-91
2022/04/23 01:17:57;;;;;;;1.50;1.00;;;15.50;99.90;;;;;;6313045;22;20174;-91
2022/04/23 01:20:33;;;;;;;2.53;1.07;;;15.40;99.90;;;;;;6317226;22;20174;-91
2022/04/23 01:23:06;;;;;;;1.07;0.83;;;15.30;99.90;;;;;;6318116;22;20177;-91
2022/04/23 01:25:38;;;;;;;1.60;0.77;;;14.90;99.90;;;;;;6324980;22;20167;-91
2022/04/23 01:28:10;;;;;;;1.93;0.77;;;14.70;99.90;;;;;;6319158;22;20179;-91
2022/04/23 01:30:41;;;;;;;1.43;0.70;;;14.60;99.90;;;;;;6327944;22;20166;-91
2022/04/23 01:33:17;;;;;;;1.87;1.03;;;14.50;99.90;;;;;;6299697;22;20163;-91
2022/04/23 01:35:55;;;;;;;1.73;0.93;;;14.40;99.90;;;;;;6301519;22;20201;-90
2022/04/23 01:38:26;;;;;;;2.50;1.03;;;14.40;99.90;;;;;;6324058;22;20166;-92
2022/04/23 01:40:57;;;;;;;2.43;1.00;;;14.30;99.90;;;;;;6327291;22;20174;-91
2022/04/23 01:43:33;;;;;;;1.67;0.70;;;14.20;99.90;;;;;;6300308;22;20186;-91
2022/04/23 01:46:05;;;;;;;1.17;0.70;;;14.20;99.90;;;;;;6320407;22;20178;-90
2022/04/23 01:48:37;;;;;;;0.83;0.70;;;14.20;99.90;;;;;;6322898;22;20174;-91
2022/04/23 01:51:15;;;;;;;1.13;0.60;;;14.20;99.90;;;;;;6329664;22;20162;-91
2022/04/23 01:53:51;;;;;;;1.77;1.00;;;14.10;99.90;;;;;;6333242;22;20177;-91
2022/04/23 01:56:23;;;;;;;1.50;1.00;;;14.00;99.90;;;;;;6324567;22;20166;-91
2022/04/23 01:58:54;;;;;;;2.50;1.00;;;14.00;99.90;;;;;;6323150;22;20178;-91
2022/04/23 02:01:25;;;;;;;2.10;1.20;;;14.00;99.90;;;;;;6334772;22;20162;-91
2022/04/23 02:06:37;;;;;;;0.93;0.80;;;14.00;99.90;;;;;;6317840;22;20204;-91
2022/04/23 02:09:09;;;;;;;1.20;0.87;;;13.90;99.90;;;;;;6331723;22;20170;-91
2022/04/23 02:11:43;;;;;;;2.00;0.90;;;13.90;99.90;;;;;;6332946;22;20188;-90
2022/04/23 02:19:33;;;;;;;1.20;0.70;;;13.40;99.90;;;;;;6319029;22;20220;-92
2022/04/23 02:22:10;;;;;;;0.80;0.60;;;13.30;99.90;;;;;;6331698;22;20201;-90
2022/04/23 02:24:44;;;;;;;1.37;0.70;;;13.30;99.90;;;;;;6330525;22;20204;-91
2022/04/23 02:27:17;;;;;;;1.10;0.70;;;13.20;99.90;;;;;;6328880;22;20220;-94
2022/04/23 02:29:53;;;;;;;2.63;0.60;;;13.10;99.90;;;;;;6325272;22;20173;-91
2022/04/23 02:32:29;;;;;;;1.23;0.80;;;13.00;99.90;;;;;;6328205;22;20178;-91
2022/04/23 02:35:01;;;;;;;1.57;0.90;;;13.00;99.90;;;;;;6326987;22;20198;-91
2022/04/23 02:37:38;;;;;;;1.70;0.80;;;13.00;99.90;;;;;;6327097;22;20175;-92
2022/04/23 02:40:14;;;;;;;2.47;0.60;;;12.90;99.90;;;;;;6328397;22;20220;-92
2022/04/23 02:42:50;;;;;;;2.73;0.80;;;12.80;99.90;;;;;;6325215;22;20205;-91
2022/04/23 02:45:27;;;;;;;1.93;0.80;;;12.80;99.90;;;;;;6365295;22;20158;-91
2022/04/23 02:47:59;;;;;;;3.37;1.10;;;12.80;99.90;;;;;;6360439;22;20172;-91
2022/04/23 02:50:34;;;;;;;1.23;0.90;;;12.80;99.90;;;;;;6332809;22;20227;-91
2022/04/23 02:53:10;;;;;;;3.43;0.80;;;12.70;99.90;;;;;;6306071;22;20162;-92
2022/04/23 02:55:41;;;;;;;1.83;1.00;;;12.60;99.90;;;;;;6357993;22;20189;-90
2022/04/23 02:58:14;;;;;;;3.80;1.30;;;12.60;99.90;;;;;;6355914;22;20192;-92
2022/04/23 03:00:46;;;;;;;2.57;1.03;;;12.50;99.90;;;;;;6328791;22;20173;-92
2022/04/23 03:03:18;;;;;;;1.80;1.00;;;12.40;99.90;;;;;;6356956;22;20203;-91
2022/04/23 03:05:53;;;;;;;5.27;1.10;;;12.40;99.90;;;;;;6358005;22;20177;-91
2022/04/23 03:08:28;;;;;;;2.53;1.30;;;12.30;99.90;;;;;;6354527;22;20169;-93
2022/04/23 03:11:05;;;;;;;2.40;1.40;;;12.30;99.90;;;;;;6355758;22;20165;-91
2022/04/23 03:13:44;;;;;;;2.10;1.23;;;12.20;99.90;;;;;;6357816;22;20164;-90
2022/04/23 03:16:15;;;;;;;1.53;0.93;;;12.10;99.90;;;;;;6337710;22;20205;-91
2022/04/23 03:18:47;;;;;;;1.83;0.83;;;12.20;99.90;;;;;;6360398;22;20165;-91
2022/04/23 03:21:19;;;;;;;1.63;0.90;;;12.10;99.90;;;;;;6358891;22;20174;-91
2022/04/23 03:24:10;;;;;;;1.47;0.80;;;12.10;99.90;;;;;;6355924;22;20173;-91
2022/04/23 03:26:43;;;;;;;2.30;1.07;;;11.90;99.90;;;;;;6358027;22;20161;-91
2022/04/23 03:29:16;;;;;;;3.37;1.13;;;11.90;99.90;;;;;;6323071;22;20490;-91
2022/04/23 03:34:34;;;;;;;3.83;1.30;;;11.80;99.90;;;;;;6356511;22;20174;-91
2022/04/23 03:37:09;;;;;;;2.93;1.20;;;11.70;99.90;;;;;;6357706;22;20187;-91
2022/04/23 03:39:44;;;;;;;2.27;1.10;;;11.60;99.90;;;;;;6348673;22;20173;-92
2022/04/23 03:42:22;;;;;;;1.77;0.90;;;11.60;99.90;;;;;;6345750;22;20169;-92
2022/04/23 03:44:54;;;;;;;2.90;1.03;;;11.50;99.90;;;;;;6354763;22;20196;-92
2022/04/23 03:47:34;;;;;;;1.43;0.93;;;11.40;99.90;;;;;;6350814;22;20411;-91
2022/04/23 03:50:07;;;;;;;3.27;1.13;;;11.30;99.90;;;;;;6345136;22;20177;-90
2022/04/23 03:52:39;;;;;;;2.30;1.30;;;11.20;99.90;;;;;;6343524;22;20177;-92
2022/04/23 03:55:14;;;;;;;2.50;1.30;;;11.10;99.90;;;;;;6348597;22;20680;-90
2022/04/23 03:57:47;;;;;;;2.50;1.10;;;11.10;99.90;;;;;;6342310;22;20177;-91
2022/04/23 04:00:23;;;;;;;2.50;1.10;;;11.00;99.90;;;;;;6354886;22;20174;-90
2022/04/23 04:03:08;;;;;;;2.03;1.00;;;11.00;99.90;;;;;;6343517;22;20225;-92
2022/04/23 04:05:39;;;;;;;2.47;1.40;;;10.90;99.90;;;;;;6350442;22;20177;-92
2022/04/23 04:08:12;;;;;;;4.67;1.53;;;10.90;99.90;;;;;;6355345;22;20174;-90
2022/04/23 04:10:46;;;;;;;2.97;1.60;;;10.80;99.90;;;;;;6357029;22;20166;-91
2022/04/23 04:13:18;;;;;;;2.63;1.40;;;10.90;99.90;;;;;;6348126;22;20173;-91
2022/04/23 04:15:51;;;;;;;2.03;1.30;;;10.80;99.90;;;;;;6351734;22;20193;-91
2022/04/23 04:18:23;;;;;;;3.63;1.40;;;10.80;99.90;;;;;;6344650;22;20511;-91
2022/04/23 04:20:55;;;;;;;3.00;1.90;;;10.70;99.90;;;;;;6344004;22;20185;-91
2022/04/23 04:23:29;;;;;;;1.87;1.67;;;10.60;99.90;;;;;;6353035;22;20223;-91
2022/04/23 04:26:04;;;;;;;4.47;2.20;;;10.60;99.90;;;;;;6347323;22;20165;-91
2022/04/23 04:28:37;;;;;;;3.47;2.30;;;10.50;99.90;;;;;;6346238;22;20169;-91
2022/04/23 04:34:04;;;;;;;5.67;2.77;;;10.50;99.90;;;;;;6360886;22;20577;-91
2022/04/23 04:36:38;;;;;;;4.73;2.67;;;10.40;99.90;;;;;;6359938;22;20239;-91
2022/04/23 04:39:11;;;;;;;3.63;2.57;;;10.30;99.90;;;;;;6360200;22;20177;-90
2022/04/23 04:41:44;;;;;;;6.13;1.87;;;10.30;99.90;;;;;;6336444;22;20174;-91
2022/04/23 04:44:16;;;;;;;2.93;1.67;;;10.30;99.90;;;;;;6360408;22;20181;-91
2022/04/23 04:46:49;;;;;;;3.43;1.33;;;10.20;99.90;;;;;;6360919;22;20170;-91
2022/04/23 04:49:24;;;;;;;4.57;1.80;;;10.20;99.90;;;;;;6358477;22;20158;-91
2022/04/23 04:51:56;;;;;;;4.50;1.60;;;10.20;99.90;;;;;;6345794;22;20188;-91
2022/04/23 04:57:17;;;;;;;2.50;1.50;;;10.10;99.90;;;;;;6351219;22;20257;-91
2022/04/23 04:59:49;;;;;;;3.23;1.80;;;10.00;99.90;;;;;;6345717;22;20173;-92
2022/04/23 05:02:20;;;;;;;2.23;1.50;;;10.00;99.90;;;;;;6344757;22;20581;-92
2022/04/23 05:04:55;;;;;;;4.43;1.93;;;9.90;99.90;;;;;;6344427;22;20199;-91
2022/04/23 05:07:28;;;;;;;2.97;1.60;;;10.00;99.90;;;;;;6345669;22;20173;-90
2022/04/23 05:09:59;;;;;;;3.70;1.30;;;9.90;99.90;;;;;;6345784;22;20623;-89
2022/04/23 05:12:32;;;;;;;3.63;1.43;;;9.90;99.90;;;;;;6345673;22;20203;-91
2022/04/23 05:15:03;;;;;;;7.70;1.67;;;9.90;99.90;;;;;;6345068;22;20169;-91
2022/04/23 05:17:39;;;;;;;5.87;1.60;;;9.90;99.90;;;;;;6343617;22;20198;-92
2022/04/23 05:20:11;;;;;;;2.63;1.40;;;9.90;99.90;;;;;;6352634;22;20184;-92
2022/04/23 05:22:42;;;;;;;6.70;1.80;;;9.80;99.90;;;;;;6320837;22;20170;-91
2022/04/23 05:25:14;;;;;;;3.50;1.60;;;9.80;99.90;;;;;;6348457;22;20215;-91
2022/04/23 05:27:49;;;;;;;5.50;2.17;;;9.80;99.90;;;;;;6330249;22;20161;-91
2022/04/23 05:30:20;;;;;;;3.70;1.50;;;9.80;99.90;;;;;;6366869;22;20199;-90
2022/04/23 05:32:53;;;;;;;5.17;1.70;;;9.80;99.90;;;;;;6365173;22;20158;-91
2022/04/23 05:35:26;;;;;;;3.10;1.40;;;9.80;99.90;;;;;;6331181;22;20184;-91
2022/04/23 05:38:01;;;;;;;3.13;1.30;;;9.80;99.90;;;;;;6344422;22;20193;-91
2022/04/23 05:40:32;;;;;;;3.57;1.43;;;9.90;99.90;;;;;;6343929;22;20178;-91
2022/04/23 05:43:06;;;;;;;3.90;1.47;;;9.90;99.90;;;;;;6343311;22;20206;-91
2022/04/23 05:45:38;;;;;;;1.63;1.07;;;10.00;99.90;;;;;;6350288;22;20165;-91
2022/04/23 05:48:10;;;;;;;5.30;2.40;;;10.10;99.90;;;;;;6342727;22;20200;-91
2022/04/23 05:50:41;;;;;;;11.00;5.20;;;10.10;99.90;;;;;;6352060;22;20534;-91
2022/04/23 05:53:15;;;;;;;4.83;2.00;;;10.20;99.90;;;;;;6352529;22;20177;-91
2022/04/23 05:55:46;;;;;;;3.57;1.83;;;10.20;99.90;;;;;;6358548;22;20176;-91
2022/04/23 05:58:20;;;;;;;6.50;2.50;;;10.30;99.90;;;;;;6355632;22;20209;-91
2022/04/23 06:00:55;;;;;;;5.90;2.40;;;10.20;99.90;;;;;;6344985;22;20193;-91
2022/04/23 06:03:27;;;;;;;4.27;1.67;;;10.20;99.90;;;;;;6352074;22;20607;-92
2022/04/23 06:05:59;;;;;;;4.60;1.80;;;10.10;99.90;;;;;;6350554;22;20192;-91
2022/04/23 06:08:31;;;;;;;3.57;1.57;;;10.20;99.90;;;;;;6343969;22;20239;-91
2022/04/23 06:11:08;;;;;;;5.97;1.87;;;10.30;99.90;;;;;;6347171;22;20162;-91
2022/04/23 06:13:42;;;;;;;6.70;2.47;;;10.20;99.90;;;;;;6345159;22;20170;-90
2022/04/23 06:16:14;;;;;;;6.20;2.50;;;10.20;99.90;;;;;;6343389;22;20173;-91
2022/04/23 06:18:45;;;;;;;5.33;2.27;;;10.20;99.90;;;;;;6346689;22;20673;-90
2022/04/23 06:21:17;;;;;;;5.93;2.13;;;10.20;99.90;;;;;;6349683;22;20177;-91
2022/04/23 06:23:48;;;;;;;3.23;1.30;;;10.20;99.90;;;;;;6346126;22;20173;-91
2022/04/23 06:26:20;;;;;;;2.30;1.30;;;10.10;99.90;;;;;;6345790;22;20184;-91
2022/04/23 06:28:55;;;;;;;9.50;2.23;;;10.00;99.90;;;;;;6344244;22;20560;-91
2022/04/23 06:31:26;;;;;;;2.70;1.50;;;10.10;99.90;;;;;;6346089;22;20189;-91
2022/04/23 06:33:57;;;;;;;4.10;1.50;;;10.10;99.90;;;;;;6343819;22;20162;-91
2022/04/23 06:36:28;;;;;;;4.40;2.03;;;10.20;99.90;;;;;;6343841;22;20173;-91
2022/04/23 06:39:00;;;;;;;4.87;1.67;;;10.20;99.90;;;;;;6344289;22;20181;-91
2022/04/23 06:41:31;;;;;;;4.17;1.60;;;10.10;99.90;;;;;;6343840;22;20573;-91
2022/04/23 06:44:04;;;;;;;3.93;1.90;;;10.20;99.90;;;;;;6343497;22;20220;-91
2022/04/23 06:46:36;;;;;;;2.50;1.53;;;10.20;99.90;;;;;;6343613;22;20186;-91
2022/04/23 06:49:07;;;;;;;5.33;1.53;;;10.10;99.90;;;;;;6346478;22;20180;-91
2022/04/23 06:51:47;;;;;;;3.40;1.60;;;10.10;99.90;;;;;;6346122;22;20173;-91
2022/04/23 06:54:18;;;;;;;4.73;1.53;;;10.10;99.90;;;;;;6344198;22;20162;-88
2022/04/23 06:56:49;;;;;;;4.50;2.07;;;10.10;99.90;;;;;;6342880;22;20198;-91
2022/04/23 06:59:24;;;;;;;4.00;1.50;;;10.00;99.90;;;;;;6342780;22;20169;-91
2022/04/23 07:02:01;;;;;;;4.33;1.37;;;10.00;99.90;;;;;;6343608;22;20174;-91
2022/04/23 07:04:33;;;;;;;3.73;1.40;;;10.00;99.90;;;;;;6344269;22;20227;-89
2022/04/23 07:07:06;;;;;;;5.67;1.60;;;10.00;99.90;;;;;;6344911;22;20173;-91
2022/04/23 07:09:38;;;;;;;7.50;1.50;;;10.00;99.90;;;;;;6346127;22;20170;-91
2022/04/23 07:12:11;;;;;;;5.17;1.83;;;9.90;99.90;;;;;;6338223;22;20169;-92
2022/04/23 07:14:44;;;;;;;7.00;1.77;;;9.90;99.90;;;;;;6330154;22;20205;-92
2022/04/23 07:17:16;;;;;;;4.40;1.40;;;9.90;99.90;;;;;;6331915;22;20202;-92
2022/04/23 07:19:48;;;;;;;4.87;1.50;;;9.80;99.90;;;;;;6321839;22;20177;-92
2022/04/23 07:22:20;;;;;;;3.90;1.50;;;9.80;99.90;;;;;;6316546;22;20171;-91
2022/04/23 07:24:52;;;;;;;4.50;1.67;;;9.70;99.90;;;;;;6315965;22;20166;-91
2022/04/23 07:27:23;;;;;;;5.80;1.40;;;9.70;99.90;;;;;;6321718;22;20228;-91
2022/04/23 07:29:56;;;;;;;3.87;1.60;;;9.60;99.90;;;;;;6312852;22;20186;-92
2022/04/23 07:32:28;;;;;;;3.07;1.60;;;9.60;99.90;;;;;;6313063;22;20162;-92
2022/04/23 07:37:47;;;;;;;4.13;1.57;;;9.50;99.90;;;;;;6312340;22;20572;-92
2022/04/23 07:40:20;;;;;;;3.97;1.30;;;9.50;99.90;;;;;;6312627;22;20185;-91
2022/04/23 07:42:51;;;;;;;3.87;1.70;;;9.50;99.90;;;;;;6311830;22;20177;-92
2022/04/23 07:45:24;;;;;;;4.50;1.70;;;9.50;99.90;;;;;;6326415;22;20158;-92
2022/04/23 07:47:55;;;;;;;1.77;1.17;;;9.50;99.90;;;;;;6328914;22;20181;-92
2022/04/23 07:50:26;;;;;;;3.13;1.70;;;9.40;99.90;;;;;;6331364;22;20170;-90
2022/04/23 07:52:59;;;;;;;4.53;1.40;;;9.40;99.90;;;;;;6329090;22;20185;-90
2022/04/23 07:55:33;;;;;;;5.70;1.90;;;9.40;99.90;;;;;;6327109;22;20170;-91
2022/04/23 07:58:06;;;;;;;6.97;1.53;;;9.30;99.90;;;;;;6317701;22;20194;-91
2022/04/23 08:00:40;;;;;;;5.77;1.70;;;9.30;99.90;;;;;;6315194;22;20201;-90
2022/04/23 08:03:12;;;;;;;2.63;1.47;;;9.30;99.90;;;;;;6314368;22;20184;-91
2022/04/23 08:05:44;;;;;;;4.40;1.87;;;9.30;99.90;;;;;;6314246;22;20194;-91
2022/04/23 08:08:17;;;;;;;3.43;1.47;;;9.30;99.90;;;;;;6312933;22;20174;-91
2022/04/23 08:10:48;;;;;;;4.10;1.87;;;9.30;99.90;;;;;;6314350;22;20175;-91
2022/04/23 08:13:19;;;;;;;5.43;1.63;;;9.30;99.90;;;;;;6322476;22;20177;-90
2022/04/23 08:15:55;;;;;;;5.87;2.07;;;9.30;99.90;;;;;;6347149;22;20231;-91
2022/04/23 08:18:28;;;;;;;5.53;1.70;;;9.20;99.90;;;;;;6349879;22;20220;-90
2022/04/23 08:21:00;;;;;;;4.03;1.70;;;9.30;99.90;;;;;;6347915;22;20174;-91
2022/04/23 08:23:33;;;;;;;6.60;1.70;;;9.30;99.90;;;;;;6320361;22;20174;-91
2022/04/23 08:26:06;;;;;;;5.33;1.80;;;9.20;99.90;;;;;;6347608;22;20170;-91
2022/04/23 08:31:30;;;;;;;6.63;2.23;;;9.20;99.90;;;;;;6347138;22;20667;-91
2022/04/23 08:34:01;;;;;;;3.40;1.50;;;9.20;99.90;;;;;;6344173;22;20173;-91
2022/04/23 08:36:36;;;;;;;3.97;1.77;;;9.20;99.90;;;;;;6345152;22;20616;-92
2022/04/23 08:39:08;;;;;;;5.37;1.77;;;9.20;99.90;;;;;;6343404;22;20208;-91
2022/04/23 08:41:40;;;;;;;2.40;1.70;;;9.10;99.90;;;;;;6344652;22;20223;-92
2022/04/23 08:44:11;;;;;;;4.47;1.40;;;9.10;99.90;;;;;;6345967;22;20209;-91
2022/04/23 08:46:48;;;;;;;4.83;1.50;;;9.00;99.90;;;;;;6344624;22;20174;-92
2022/04/23 08:49:20;;;;;;;3.80;1.60;;;9.00;99.90;;;;;;6342563;22;20176;-91
2022/04/23 08:51:55;;;;;;;3.53;1.30;;;8.90;99.90;;;;;;6345039;22;20174;-91
2022/04/23 08:54:28;;;;;;;4.90;1.77;;;8.90;99.90;;;;;;6346224;22;20200;-91
2022/04/23 08:57:00;;;;;;;3.03;1.23;;;8.90;99.90;;;;;;6344729;22;20165;-90
2022/04/23 08:59:31;;;;;;;4.33;1.57;;;8.90;99.90;;;;;;6345066;22;20235;-90
2022/04/23 09:02:10;;;;;;;2.10;1.50;;;9.00;99.90;;;;;;6344661;22;20229;-90
2022/04/23 09:04:42;;;;;;;5.37;1.60;;;8.90;99.90;;;;;;6344328;22;20169;-90
2022/04/23 09:07:23;;;;;;;5.83;2.03;;;9.00;99.90;;;;;;6316743;22;20174;-91
2022/04/23 09:09:55;;;;;;;3.63;1.97;;;8.90;99.90;;;;;;6346130;22;20177;-91
2022/04/23 09:12:28;;;;;;;5.37;1.97;;;8.90;99.90;;;;;;6344649;22;20162;-91
2022/04/23 09:23:39;;;;;;;5.57;1.90;;;8.90;99.90;;;;;;6348150;22;20189;-90
2022/04/23 09:23:41;;;;;;;3.33;1.70;;;9.00;99.90;;;;;;6345293;22;20173;-92
2022/04/23 09:26:20;;;;;;;3.33;1.87;;;9.00;99.90;;;;;;6345364;22;20533;-89
2022/04/23 09:28:52;;;;;;;2.93;1.90;;;8.90;99.90;;;;;;6343957;22;20200;-91
2022/04/23 09:31:26;;;;;;;2.47;1.60;;;8.90;99.90;;;;;;6347230;22;20174;-91
2022/04/23 09:34:00;;;;;;;3.70;1.70;;;8.90;99.90;;;;;;6345085;22;20236;-91
2022/04/23 09:36:50;;;;;;;2.53;1.93;;;8.80;99.90;;;;;;6344795;22;20226;-90
2022/04/23 09:39:34;;;;;;;4.00;2.00;;;8.80;99.90;;;;;;6344799;22;20228;-89
2022/04/23 09:42:17;;;;;;;5.23;2.10;;;8.80;99.90;;;;;;6345815;22;20178;-90
2022/04/23 09:44:49;;;;;;;4.77;2.30;;;8.80;99.90;;;;;;6345184;22;20503;-90
2022/04/23 09:47:32;;;;;;;4.70;2.10;;;8.80;99.90;;;;;;6344269;22;20170;-90
2022/04/23 09:50:05;;;;;;;5.07;2.43;;;8.80;99.90;;;;;;6344879;22;20170;-90
2022/04/23 09:52:37;;;;;;;5.47;2.40;;;8.80;99.90;;;;;;6344319;22;20173;-91
2022/04/23 09:55:27;;;;;;;3.30;2.17;;;8.80;99.90;;;;;;6345409;22;20177;-91
2022/04/23 09:57:58;;;;;;;3.30;2.20;;;8.70;99.90;;;;;;6351113;22;20165;-90
2022/04/23 10:00:34;;;;;;;3.40;2.30;;;8.70;99.90;;;;;;6364840;22;20191;-91
2022/04/23 10:03:08;;;;;;;5.33;2.50;;;8.60;99.90;;;;;;6365359;22;20174;-92
2022/04/23 10:05:43;;;;;;;2.80;2.30;;;8.50;99.90;;;;;;6347958;22;20219;-91
2022/04/23 10:08:16;;;;;;;3.10;2.10;;;8.50;99.90;;;;;;6344380;22;20158;-91
2022/04/23 10:10:53;;;;;;;3.10;2.00;;;8.50;99.90;;;;;;6351521;22;20173;-91
2022/04/23 10:13:28;;;;;;;3.43;1.80;;;8.40;99.90;;;;;;6344251;22;20192;-91
2022/04/23 10:16:02;;;;;;;2.87;1.90;;;8.50;99.90;;;;;;6352967;22;20710;-90
2022/04/23 10:18:34;;;;;;;4.63;2.03;;;8.40;99.90;;;;;;6346597;22;20185;-90
2022/04/23 10:21:09;;;;;;;5.37;2.03;;;8.50;99.90;;;;;;6348892;22;20178;-90
2022/04/23 10:23:58;;;;;;;4.03;1.90;;;8.40;99.90;;;;;;6346940;22;20173;-92
2022/04/23 10:26:39;;;;;;;3.63;1.93;;;8.20;99.90;;;;;;6344582;22;20201;-91
2022/04/23 10:29:13;;;;;;;4.77;2.10;;;8.10;99.90;;;;;;6318210;22;20196;-90
2022/04/23 10:31:46;;;;;;;2.93;1.90;;;8.10;99.90;;;;;;6344057;22;20168;-91
2022/04/23 10:34:36;;;;;;;2.80;1.80;;;8.10;99.90;;;;;;6344465;22;20175;-91
2022/04/23 10:37:19;;;;;;;4.07;2.00;;;8.10;99.90;;;;;;6343798;22;20178;-91
2022/04/23 10:40:16;;;;;;;3.70;1.90;;;8.10;99.90;;;;;;6347093;22;20203;-91
2022/04/23 10:43:12;;;;;;;3.60;2.03;;;7.90;99.90;;;;;;6318000;22;20192;-90
2022/04/23 10:45:43;;;;;;;3.03;2.10;;;7.60;99.90;;;;;;6345301;22;20219;-91
2022/04/23 10:48:30;;;;;;;3.40;2.20;;;7.50;99.90;;;;;;6346855;22;20207;-91
2022/04/23 10:51:08;;;;;;;5.07;2.50;;;7.50;99.90;;;;;;6349133;22;20169;-91
2022/04/23 10:54:01;;;;;;;5.47;2.33;;;7.50;99.90;;;;;;6347021;22;20181;-90
2022/04/23 10:56:37;;;;;;;4.93;2.20;;;7.50;99.90;;;;;;6343728;22;20165;-90
2022/04/23 10:59:35;;;;;;;2.93;2.00;;;7.40;99.90;;;;;;6317343;22;20196;-91
2022/04/23 11:02:14;;;;;;;3.43;1.80;;;7.40;99.90;;;;;;6344674;22;20618;-89
2022/04/23 11:13:26;;;;;;;2.73;1.70;;;7.70;99.90;;;;;;6349376;22;20185;-91
2022/04/23 11:16:16;;;;;;;2.13;1.70;;;7.80;99.90;;;;;;6356593;22;20184;-90
2022/04/23 11:18:50;;;;;;;4.00;2.00;;;7.60;99.90;;;;;;6356478;22;20229;-91
2022/04/23 11:21:26;;;;;;;3.23;1.97;;;7.70;99.90;;;;;;6353062;22;20194;-91
2022/04/23 11:23:58;;;;;;;3.20;1.93;;;7.60;99.90;;;;;;6352634;22;20173;-90
2022/04/23 11:26:46;;;;;;;5.90;2.10;;;7.70;99.90;;;;;;6350526;22;20647;-90
2022/04/23 11:29:17;;;;;;;3.83;2.00;;;7.80;99.90;;;;;;6346523;22;20176;-89
2022/04/23 11:31:55;;;;;;;3.60;2.00;;;7.80;99.90;;;;;;6321914;22;20180;-91
2022/04/23 11:34:29;;;;;;;3.37;1.87;;;7.80;99.90;;;;;;6346916;22;20176;-91
2022/04/23 11:37:01;;;;;;;3.50;1.90;;;7.70;99.90;;;;;;6346234;22;20223;-91
2022/04/23 11:39:33;;;;;;;2.53;1.77;;;7.70;99.90;;;;;;6345043;22;20250;-90
2022/04/23 11:42:09;;;;;;;4.23;2.10;;;7.70;99.90;;;;;;6346456;22;20172;-90
2022/04/23 11:44:50;;;;;;;6.50;2.13;;;7.70;99.90;;;;;;6345956;22;20667;-90
2022/04/23 11:47:33;;;;;;;7.57;2.17;;;7.70;99.90;;;;;;6344933;22;20181;-90
2022/04/23 11:50:16;;;;;;;4.20;1.93;;;7.70;99.90;;;;;;6346247;22;20166;-90
2022/04/23 11:52:58;;;;;;;5.17;2.43;;;7.70;99.90;;;;;;6345567;22;20248;-91
2022/04/23 11:55:30;;;;;;;3.97;2.17;;;7.80;99.90;;;;;;6345863;22;20192;-91
2022/04/23 11:58:06;;;;;;;4.37;2.40;;;7.80;99.90;;;;;;6345706;22;20173;-91
2022/04/23 12:00:37;;;;;;;7.20;2.53;;;7.90;99.90;;;;;;6346070;22;20189;-90
2022/04/23 12:03:10;;;;;;;5.87;2.63;;;7.80;99.90;;;;;;6346698;22;20205;-91
2022/04/23 12:05:42;;;;;;;7.77;2.67;;;7.70;99.90;;;;;;6347514;22;20187;-91
2022/04/23 12:08:23;;;;;;;5.83;2.20;;;7.70;99.90;;;;;;6345706;22;20173;-91
2022/04/23 12:10:56;;;;;;;8.07;2.43;;;7.70;99.90;;;;;;6363961;22;20176;-91
2022/04/23 12:13:31;;;;;;;5.60;2.03;;;7.70;99.90;;;;;;6357379;22;20189;-91
2022/04/23 12:16:03;;;;;;;4.83;2.10;;;7.70;99.90;;;;;;6361892;22;20173;-91
2022/04/23 12:18:36;;;;;;;9.47;2.70;;;7.70;99.90;;;;;;6366931;22;20247;-91
2022/04/23 12:21:10;;;;;;;5.17;1.97;;;7.70;99.90;;;;;;6367390;22;20200;-91
2022/04/23 12:23:44;;;;;;;7.70;2.47;;;7.70;99.90;;;;;;6340724;22;20174;-91
2022/04/23 12:26:19;;;;;;;4.07;2.13;;;7.70;99.90;;;;;;6366819;22;20162;-90
2022/04/23 12:43:30;;;;;;;5.87;2.67;;;7.70;99.90;;;;;;6366889;22;20173;-91
2022/04/23 12:46:09;;;;;;;7.00;2.63;;;7.70;99.90;;;;;;6364420;22;20154;-91
2022/04/23 12:49:03;;;;;;;5.10;2.20;;;7.80;99.90;;;;;;6362130;22;20249;-91
2022/04/23 12:51:53;;;;;;;6.00;2.33;;;7.70;99.90;;;;;;6363874;22;20180;-91
2022/04/23 12:54:24;;;;;;;7.73;2.90;;;7.60;99.90;;;;;;6364999;22;20187;-91
2022/04/23 12:56:55;;;;;;;5.30;2.50;;;7.70;99.90;;;;;;6363954;22;20178;-92
2022/04/23 12:59:27;;;;;;;7.80;2.47;;;7.70;99.90;;;;;;6361900;22;20203;-88
2022/04/23 13:02:00;;;;;;;7.67;3.37;;;7.70;99.90;;;;;;6361006;22;20227;-90
2022/04/23 13:04:33;;;;;;;9.47;2.63;;;7.80;99.90;;;;;;6362561;22;20173;-90
2022/04/23 13:09:53;;;;;;;5.70;2.43;;;7.90;99.90;;;;;;6365015;22;20188;-91
2022/04/23 13:12:24;;;;;;;10.63;2.60;;;7.90;99.90;;;;;;6360721;22;20669;-89
2022/04/23 13:14:56;;;;;;;8.57;2.47;;;8.00;99.90;;;;;;6348799;22;20185;-91
2022/04/23 13:17:31;;;;;;;10.40;2.60;;;8.00;99.90;;;;;;6349178;22;20177;-90
2022/04/23 13:20:02;;;;;;;10.83;3.70;;;7.90;99.90;;;;;;6351534;22;20193;-90
2022/04/23 13:22:33;;;;;;;14.63;3.60;;;7.90;99.90;;;;;;6348683;22;20184;-91
2022/04/23 13:25:05;;;;;;;11.70;2.97;;;7.90;99.90;;;;;;6348987;22;20165;-91
2022/04/23 13:27:37;;;;;;;13.23;4.07;;;7.90;99.90;;;;;;6351641;22;20185;-90
2022/04/23 13:30:11;;;;;;;11.70;3.50;;;7.90;99.90;;;;;;6347798;22;20173;-89
2022/04/23 13:32:46;;;;;;;14.33;3.67;;;8.00;99.90;;;;;;6345965;22;20173;-90
2022/04/23 13:35:20;;;;;;;11.10;3.40;;;8.00;99.90;;;;;;6345852;22;20193;-90
2022/04/23 13:37:51;;;;;;;11.33;3.97;;;8.10;99.90;;;;;;6319849;22;20161;-90
2022/04/23 13:40:23;;;;;;;15.90;3.60;;;8.10;99.90;;;;;;6348990;22;20197;-90
2022/04/23 13:42:55;;;;;;;11.10;3.60;;;8.10;99.90;;;;;;6350589;22;20177;-91
2022/04/23 13:45:26;;;;;;;14.03;4.27;;;8.20;99.90;;;;;;6325177;22;20227;-90
2022/04/23 13:48:01;;;;;;;11.57;3.60;;;8.20;99.90;;;;;;6345886;22;20173;-91
2022/04/23 13:50:33;;;;;;;12.10;3.83;;;8.30;99.90;;;;;;6350654;22;20185;-91
2022/04/23 13:53:04;;;;;;;13.00;4.83;;;8.40;99.90;;;;;;6345346;22;20508;-91
2022/04/23 13:55:35;;;;;;;12.43;4.00;;;8.30;99.90;;;;;;6319510;22;20227;-91
2022/04/23 13:58:08;;;;;;;15.37;4.70;;;8.30;99.90;;;;;;6320757;22;20484;-90
2022/04/23 14:00:39;;;;;;;17.70;4.40;;;8.30;99.90;;;;;;6346145;22;20196;-90
2022/04/23 14:11:36;;;;;;;12.70;4.37;;;8.60;99.90;;;;;;6347841;22;20203;-90
2022/04/23 14:14:07;;;;;;;12.90;5.10;;;8.60;99.90;;;;;;6348236;22;20181;-90
2022/04/23 14:16:40;;;;;;;17.67;5.60;;;8.70;99.90;;;;;;6348731;22;20165;-91
2022/04/23 14:19:17;;;;;;;20.23;4.90;;;8.80;99.90;;;;;;6347268;22;20196;-90
2022/04/23 14:21:49;;;;;;;12.63;4.83;;;8.70;99.90;;;;;;6345431;22;20197;-91
2022/04/23 14:24:22;;;;;;;14.87;6.03;;;8.60;99.90;;;;;;6320745;22;20197;-90
2022/04/23 14:26:54;;;;;;;11.00;5.33;;;8.50;99.90;;;;;;6337155;22;20157;-90
2022/04/23 14:29:25;;;;;;;13.33;5.40;;;8.60;99.90;;;;;;6365121;22;20170;-91
2022/04/23 14:31:57;;;;;;;15.03;5.53;;;8.50;99.90;;;;;;6359162;22;20235;-90